In Rescue
 
Open Full Screen Window  High Contrast Mode
Wind Gusting 00 knots
08
February 25, 2021 5:11 PM EST
Weather Information
Wind Direction
  310 °
Wind Speed
  08 kt (9 mph)
Wind Gust
  00 kt (0 mph)
Altimeter
30.24 in
Visibility
10 SM
Temperature
00° C
32° F
Dewpoint
-07° C
19° F
Humidity
60%
1hr Rain Fall
00.00 in.
24hr Rain Fall
00.00 in.
Sky Condition
Broken @ 3,600 ft
VFR

METAR KRQB 252211Z AUTO 31008KT 10SM BKN036 00/M07 A3024 RMK AO2 T00001068

FAA Disclaimer: The data displayed is for advisory purposes only and is not to be used for flight planning or operations.